Industry, Kansas
Current Conditions -  °F | °C
As of 11:58 AM on Thursday 30 Oct 2014 (Local Time) from KFRI Reporting Station
Haze Haze  
Wind Chill: 66°   Ceiling: Unl
Heat Index: 66°   Visibility: 6mi
Dew Point: 37°   Wind: 10mph
Humidity: 35%   Direction: 330°NNW
Pressure: 30.11"   Gusts: 26mph
Location:  39.0421°N, 97.1702°W
Report Text: KFRI 301658Z AUTO 33009G23KT 6SM HZ CLR 19/03 A3011 RMK AO2 SLP192 T01880028
Loading
Personal Weather Stations






























Interactive Weather Map New forecast layout! Learn more

10-Day Weather Forecast

Advertisements
Track Severe Weather on mobile